createdAt,value
2023-01-22T00:00:40.545Z,103440.88
2023-01-22T00:03:07.139Z,103440.94
2023-01-22T00:05:34.027Z,103439.16
2023-01-22T00:08:00.916Z,103443.63
2023-01-22T00:10:27.516Z,103448.09
2023-01-22T00:12:54.241Z,103442.78
2023-01-22T00:15:20.813Z,103432.09
2023-01-22T00:17:47.424Z,103443.69
2023-01-22T00:20:14.658Z,103435.66
2023-01-22T00:22:42.382Z,103442.81
2023-01-22T00:25:12.371Z,103435.66
2023-01-22T00:27:39.061Z,103424.97
2023-01-22T00:30:09.348Z,103430.31
2023-01-22T00:32:38.872Z,103432.09
2023-01-22T00:35:05.761Z,103424.94
2023-01-22T00:37:34.962Z,103424.06
2023-01-22T00:40:02.314Z,103416.06
2023-01-22T00:42:29.113Z,103420.50
2023-01-22T00:44:56.422Z,103378.72
2023-01-22T00:47:23.134Z,103417.81
2023-01-22T00:49:52.478Z,103419.59
2023-01-22T00:52:21.321Z,103415.19
2023-01-22T00:54:47.947Z,103424.97
2023-01-22T00:57:14.732Z,103411.56
2023-01-22T00:59:43.552Z,103416.03
2023-01-22T01:02:10.306Z,103412.44
2023-01-22T01:04:38.778Z,103409.78
2023-01-22T01:07:06.190Z,103407.09
2023-01-22T01:09:35.322Z,103416.06
2023-01-22T01:12:02.111Z,103411.56
2023-01-22T01:14:29.020Z,103363.53
2023-01-22T01:17:01.992Z,103408.03
2023-01-22T01:19:28.741Z,103386.66
2023-01-22T01:21:57.732Z,103390.19
2023-01-22T01:24:24.701Z,103388.44
2023-01-22T01:26:53.728Z,103394.63
2023-01-22T01:29:21.294Z,103391.97
2023-01-22T01:31:54.269Z,103395.50
2023-01-22T01:34:25.007Z,103363.47
2023-01-22T01:36:51.607Z,103374.97
2023-01-22T01:39:18.471Z,103395.50
2023-01-22T01:41:45.250Z,103361.66
2023-01-22T01:44:18.097Z,103360.81
2023-01-22T01:46:50.275Z,103370.50
2023-01-22T01:49:27.032Z,103360.72
2023-01-22T01:51:56.958Z,103368.72
2023-01-22T01:54:24.363Z,103361.59
2023-01-22T01:56:55.323Z,103366.03
2023-01-22T01:59:22.762Z,103355.34
2023-01-22T02:01:56.341Z,103363.34
2023-01-22T02:04:24.829Z,103360.66
2023-01-22T02:06:51.620Z,103360.66
2023-01-22T02:09:18.290Z,103366.88
2023-01-22T02:11:48.313Z,103324.19
2023-01-22T02:14:22.758Z,103354.38
2023-01-22T02:17:00.279Z,103358.84
2023-01-22T02:19:26.946Z,103361.50
2023-01-22T02:21:53.653Z,103356.16
2023-01-22T02:24:20.218Z,103317.91
2023-01-22T02:26:46.873Z,103341.88
2023-01-22T02:29:14.460Z,103316.06
2023-01-22T02:31:42.389Z,103319.66
2023-01-22T02:34:10.888Z,103340.94
2023-01-22T02:36:39.818Z,103308.97
2023-01-22T02:39:07.138Z,103348.06
2023-01-22T02:41:34.053Z,103348.94
2023-01-22T02:44:03.197Z,103327.56
2023-01-22T02:46:32.185Z,103342.69
2023-01-22T02:48:58.881Z,103320.44
2023-01-22T02:51:26.862Z,103340.00
2023-01-22T02:53:54.524Z,103338.19
2023-01-22T02:56:21.671Z,103317.78
2023-01-22T02:58:48.866Z,103337.31
2023-01-22T03:01:21.483Z,103314.19
2023-01-22T03:03:49.211Z,103344.44
2023-01-22T03:06:16.242Z,103342.69
2023-01-22T03:08:43.771Z,103332.88
2023-01-22T03:11:13.666Z,103337.34
2023-01-22T03:13:58.928Z,103340.03
2023-01-22T03:16:44.196Z,103318.72
2023-01-22T03:19:29.783Z,103333.84
2023-01-22T03:21:58.758Z,103339.19
2023-01-22T03:24:25.429Z,103304.50
2023-01-22T03:26:52.047Z,103332.91
2023-01-22T03:29:18.658Z,103348.09
2023-01-22T03:31:48.572Z,103340.91
2023-01-22T03:34:20.350Z,103312.47
2023-01-22T03:36:49.950Z,103324.81
2023-01-22T03:39:16.518Z,103315.03
2023-01-22T03:41:44.101Z,103335.41
2023-01-22T03:44:11.946Z,103314.97
2023-01-22T03:46:42.274Z,103334.47
2023-01-22T03:49:09.635Z,103329.13
2023-01-22T03:51:37.524Z,103335.38
2023-01-22T03:54:05.117Z,103307.81
2023-01-22T03:56:32.644Z,103334.47
2023-01-22T03:58:59.300Z,103334.44
2023-01-22T04:01:28.077Z,103329.06
2023-01-22T04:03:56.984Z,103300.59
2023-01-22T04:06:26.946Z,103328.13
2023-01-22T04:08:55.061Z,103326.38
2023-01-22T04:11:22.542Z,103326.41
2023-01-22T04:13:49.868Z,103332.59
2023-01-22T04:16:17.554Z,103324.53
2023-01-22T04:18:45.429Z,103318.31
2023-01-22T04:21:12.057Z,103315.53
2023-01-22T04:23:38.777Z,103320.88
2023-01-22T04:26:07.846Z,103310.19
2023-01-22T04:28:35.313Z,103318.16
2023-01-22T04:31:02.121Z,103291.44
2023-01-22T04:33:30.691Z,103316.28
2023-01-22T04:35:57.358Z,103297.56
2023-01-22T04:38:26.441Z,103282.50
2023-01-22T04:40:55.690Z,103288.69
2023-01-22T04:43:22.524Z,103293.13
2023-01-22T04:45:50.984Z,103325.94
2023-01-22T04:48:18.607Z,103331.25
2023-01-22T04:50:46.427Z,103324.09
2023-01-22T04:53:13.331Z,103301.84
2023-01-22T04:55:42.549Z,103322.28
2023-01-22T04:58:09.688Z,103307.13
2023-01-22T05:00:36.442Z,103316.84
2023-01-22T05:03:04.661Z,103282.16
2023-01-22T05:05:35.746Z,103311.41
2023-01-22T05:08:02.598Z,103313.22
2023-01-22T05:10:29.603Z,103315.06
2023-01-22T05:12:57.191Z,103311.50
2023-01-22T05:15:25.160Z,103270.69
2023-01-22T05:17:55.738Z,103307.06
2023-01-22T05:20:22.648Z,103277.88
2023-01-22T05:22:49.923Z,103324.94
2023-01-22T05:25:16.540Z,103313.31
2023-01-22T05:27:43.436Z,103318.66
2023-01-22T05:30:14.873Z,103324.00
2023-01-22T05:32:41.804Z,103336.50
2023-01-22T05:35:11.181Z,103326.66
2023-01-22T05:37:37.997Z,103295.53
2023-01-22T05:40:07.332Z,103316.84
2023-01-22T05:42:36.154Z,103306.13
2023-01-22T05:45:05.995Z,103321.19
2023-01-22T05:47:32.978Z,103322.13
2023-01-22T05:49:59.649Z,103333.66
2023-01-22T05:52:28.679Z,103331.94
2023-01-22T05:54:55.281Z,103305.25
2023-01-22T05:57:24.405Z,103323.88
2023-01-22T05:59:51.032Z,103340.81
2023-01-22T06:02:17.734Z,103344.38
2023-01-22T06:04:44.488Z,103331.94
2023-01-22T06:07:11.321Z,103339.91
2023-01-22T06:09:38.244Z,103337.22
2023-01-22T06:12:05.202Z,103343.47
2023-01-22T06:14:31.793Z,103326.59
2023-01-22T06:17:02.140Z,103343.47
2023-01-22T06:19:28.725Z,103307.88
2023-01-22T06:21:55.370Z,103340.78
2023-01-22T06:24:21.958Z,103299.06
2023-01-22T06:26:48.542Z,103337.22
2023-01-22T06:29:15.550Z,103319.44
2023-01-22T06:31:44.562Z,103348.75
2023-01-22T06:34:11.389Z,103347.78
2023-01-22T06:36:38.072Z,103341.50
2023-01-22T06:39:05.101Z,103340.63
2023-01-22T06:41:32.124Z,103349.56
2023-01-22T06:43:58.720Z,103336.19
2023-01-22T06:46:25.564Z,103297.13
2023-01-22T06:48:52.588Z,103356.72
2023-01-22T06:51:19.645Z,103324.69
2023-01-22T06:53:46.514Z,103348.72
2023-01-22T06:56:13.466Z,103336.22
2023-01-22T06:58:40.232Z,103330.03
2023-01-22T07:01:09.542Z,103343.34
2023-01-22T07:03:36.414Z,103350.38
2023-01-22T07:06:10.022Z,103322.84
2023-01-22T07:08:41.460Z,103358.41
2023-01-22T07:11:08.148Z,103357.53
2023-01-22T07:13:34.812Z,103345.97
2023-01-22T07:16:06.153Z,103331.78
2023-01-22T07:18:32.899Z,103323.72
2023-01-22T07:21:05.426Z,103348.59
2023-01-22T07:23:32.351Z,103318.38
2023-01-22T07:25:59.219Z,103332.63
2023-01-22T07:28:25.951Z,103364.59
2023-01-22T07:30:52.849Z,103352.94
2023-01-22T07:33:19.798Z,103318.28
2023-01-22T07:35:54.537Z,103319.19
2023-01-22T07:38:21.342Z,103343.09
2023-01-22T07:40:47.956Z,103341.34
2023-01-22T07:43:17.884Z,103332.56
2023-01-22T07:45:45.198Z,103362.75
2023-01-22T07:48:12.004Z,103353.81
2023-01-22T07:50:40.284Z,103345.88
2023-01-22T07:53:08.688Z,103350.28
2023-01-22T07:55:35.357Z,103366.31
2023-01-22T07:58:05.958Z,103357.31
2023-01-22T08:00:35.366Z,103335.16
2023-01-22T08:03:05.933Z,103364.44
2023-01-22T08:05:33.382Z,103355.53
2023-01-22T08:08:02.239Z,103358.16
2023-01-22T08:10:28.785Z,103371.50
2023-01-22T08:12:56.076Z,103359.91
2023-01-22T08:15:23.057Z,103373.22
2023-01-22T08:17:51.236Z,103364.25
2023-01-22T08:20:19.051Z,103366.91
2023-01-22T08:22:45.840Z,103341.16
2023-01-22T08:25:15.625Z,103373.16
2023-01-22T08:27:42.211Z,103358.09
2023-01-22T08:30:11.351Z,103351.88
2023-01-22T08:32:40.734Z,103377.69
2023-01-22T08:35:08.214Z,103383.94
2023-01-22T08:37:37.111Z,103359.06
2023-01-22T08:40:08.531Z,103386.63
2023-01-22T08:42:39.909Z,103386.63
2023-01-22T08:45:07.669Z,103383.94
2023-01-22T08:47:34.668Z,103384.81
2023-01-22T08:50:04.128Z,103394.66
2023-01-22T08:52:31.145Z,103360.81
2023-01-22T08:54:58.261Z,103367.97
2023-01-22T08:57:24.889Z,103389.25
2023-01-22T09:00:00.790Z,103387.41
2023-01-22T09:02:28.151Z,103386.47
2023-01-22T09:04:55.048Z,103379.34
2023-01-22T09:07:21.708Z,103389.94
2023-01-22T09:09:48.298Z,103383.63
2023-01-22T09:12:15.377Z,103377.38
2023-01-22T09:14:42.048Z,103383.53
2023-01-22T09:17:11.493Z,103386.19
2023-01-22T09:19:38.083Z,103358.59
2023-01-22T09:22:07.683Z,103339.09
2023-01-22T09:24:34.362Z,103379.84
2023-01-22T09:27:01.229Z,103377.16
2023-01-22T09:29:28.001Z,103357.69
2023-01-22T09:31:54.728Z,103382.44
2023-01-22T09:34:21.571Z,103383.34
2023-01-22T09:36:48.791Z,103391.31
2023-01-22T09:39:15.556Z,103402.97
2023-01-22T09:41:53.234Z,103388.69
2023-01-22T09:44:32.007Z,103065.88
2023-01-22T09:47:06.315Z,103261.72
2023-01-22T09:49:40.813Z,103394.81
2023-01-22T09:52:09.709Z,103386.88
2023-01-22T09:54:38.617Z,103397.47
2023-01-22T09:57:19.874Z,103406.38
2023-01-22T09:59:57.143Z,103402.75
2023-01-22T10:02:36.609Z,103393.03
2023-01-22T10:05:30.274Z,103399.97
2023-01-22T10:08:22.875Z,103407.09
2023-01-22T10:10:52.171Z,103411.56
2023-01-22T10:13:29.882Z,103408.97
2023-01-22T10:15:57.048Z,103410.69
2023-01-22T10:18:42.488Z,103402.63
2023-01-22T10:21:21.048Z,103379.56
2023-01-22T10:23:50.917Z,103406.25
2023-01-22T10:26:25.208Z,103405.31
2023-01-22T10:28:56.892Z,103413.38
2023-01-22T10:31:35.480Z,103399.97
2023-01-22T10:34:20.299Z,103413.34
2023-01-22T10:36:51.827Z,103404.41
2023-01-22T10:39:21.821Z,103399.94
2023-01-22T10:41:49.258Z,103399.94
2023-01-22T10:44:25.835Z,103392.75
2023-01-22T10:46:54.260Z,103393.69
2023-01-22T10:49:26.075Z,103397.25
2023-01-22T10:51:54.482Z,103403.41
2023-01-22T10:54:25.304Z,103403.41
2023-01-22T10:57:03.723Z,103406.94
2023-01-22T10:59:31.237Z,103411.44
2023-01-22T11:02:11.368Z,103406.91
2023-01-22T11:04:38.099Z,103402.44
2023-01-22T11:07:08.778Z,103381.13
2023-01-22T11:09:41.850Z,103405.06
2023-01-22T11:12:41.702Z,103398.81
2023-01-22T11:15:21.245Z,103367.59
2023-01-22T11:18:00.670Z,103397.84
2023-01-22T11:20:51.769Z,103384.38
2023-01-22T11:23:43.902Z,103396.88
2023-01-22T11:26:19.598Z,103379.78
2023-01-22T11:29:20.439Z,103389.59
2023-01-22T11:32:11.855Z,103395.97
2023-01-22T11:34:47.263Z,103383.38
2023-01-22T11:37:20.997Z,103340.66
2023-01-22T11:39:57.962Z,103377.94
2023-01-22T11:42:47.818Z,103270.41
2023-01-22T11:45:40.509Z,103354.44
2023-01-22T11:48:13.091Z,103361.47
2023-01-22T11:50:47.676Z,103341.03
2023-01-22T11:53:48.309Z,103344.31
2023-01-22T11:56:24.379Z,103352.31
2023-01-22T11:59:08.943Z,103349.56
2023-01-22T12:01:58.741Z,103351.28
2023-01-22T12:05:07.351Z,103342.25
2023-01-22T12:07:52.782Z,103341.22
2023-01-22T12:10:39.150Z,103337.63
2023-01-22T12:13:38.057Z,103334.84
2023-01-22T12:16:16.049Z,103339.13
2023-01-22T12:18:54.888Z,103334.63
2023-01-22T12:21:55.116Z,103334.56
2023-01-22T12:24:28.068Z,103342.66
2023-01-22T12:27:05.764Z,103335.50
2023-01-22T12:29:45.908Z,103333.72
2023-01-22T12:32:15.454Z,103330.28
2023-01-22T12:34:55.144Z,103103.56
2023-01-22T12:37:28.518Z,103244.31
2023-01-22T12:40:13.903Z,103334.78
2023-01-22T12:42:59.282Z,103325.97
2023-01-22T12:45:37.732Z,103334.03
2023-01-22T12:48:16.608Z,103338.50
2023-01-22T12:50:54.401Z,103273.84
2023-01-22T12:53:27.011Z,103185.44
2023-01-22T12:56:10.269Z,103350.16
2023-01-22T12:58:39.706Z,103347.75
2023-01-22T13:01:09.380Z,103358.34
2023-01-22T13:03:36.789Z,103358.34
2023-01-22T13:06:17.163Z,103335.19
2023-01-22T13:08:48.265Z,103345.94
2023-01-22T13:11:33.107Z,103344.16
2023-01-22T13:14:21.823Z,103359.22
2023-01-22T13:16:59.565Z,103365.47
2023-01-22T13:19:36.092Z,103342.31
2023-01-22T13:22:08.052Z,103354.66
2023-01-22T13:24:36.984Z,103359.09
2023-01-22T13:27:03.746Z,103353.75
2023-01-22T13:29:34.166Z,103359.16
2023-01-22T13:32:15.355Z,103361.84
2023-01-22T13:34:41.978Z,103354.66
2023-01-22T13:37:20.267Z,103364.50
2023-01-22T13:39:49.060Z,103345.78
2023-01-22T13:42:15.953Z,103357.31
2023-01-22T13:44:49.743Z,103339.72
2023-01-22T13:47:28.167Z,103364.56
2023-01-22T13:49:55.794Z,103349.53
2023-01-22T13:52:25.344Z,103296.25
2023-01-22T13:55:01.365Z,103377.97
2023-01-22T13:57:28.203Z,103362.03
2023-01-22T13:59:57.060Z,103359.38
2023-01-22T14:02:43.883Z,103385.25
2023-01-22T14:05:22.458Z,103359.44
2023-01-22T14:07:50.078Z,103296.53
2023-01-22T14:10:24.182Z,103383.50
2023-01-22T14:13:10.820Z,103379.94
2023-01-22T14:15:38.880Z,103384.34
2023-01-22T14:18:28.855Z,103388.88
2023-01-22T14:20:55.455Z,103389.78
2023-01-22T14:23:22.017Z,103383.47
2023-01-22T14:25:53.934Z,103348.91
2023-01-22T14:28:24.369Z,103379.00
2023-01-22T14:30:51.430Z,103376.44
2023-01-22T14:33:24.192Z,103388.88
2023-01-22T14:35:52.104Z,103372.03
2023-01-22T14:38:21.674Z,103399.53
2023-01-22T14:40:50.691Z,103402.22
2023-01-22T14:43:17.470Z,103395.97
2023-01-22T14:45:45.578Z,103390.72
2023-01-22T14:48:17.336Z,103395.06
2023-01-22T14:50:44.252Z,103397.75
2023-01-22T14:53:11.696Z,103389.72
2023-01-22T14:55:38.544Z,103382.75
2023-01-22T14:58:06.238Z,103402.22
2023-01-22T15:00:32.943Z,103398.66
2023-01-22T15:03:00.366Z,103386.25
2023-01-22T15:05:27.815Z,103377.28
2023-01-22T15:07:54.673Z,103366.63
2023-01-22T15:10:21.770Z,103381.69
2023-01-22T15:12:50.137Z,103392.31
2023-01-22T15:15:22.990Z,103381.63
2023-01-22T15:17:52.780Z,103397.66
2023-01-22T15:20:21.118Z,103392.25
2023-01-22T15:22:49.728Z,103379.13
2023-01-22T15:25:16.928Z,103392.44
2023-01-22T15:27:46.355Z,103410.22
2023-01-22T15:30:13.835Z,103412.94
2023-01-22T15:32:40.850Z,103412.88
2023-01-22T15:35:07.692Z,103405.72
2023-01-22T15:37:34.425Z,103373.00
2023-01-22T15:40:01.061Z,103407.59
2023-01-22T15:42:27.666Z,103397.00
2023-01-22T15:44:54.405Z,103406.69
2023-01-22T15:47:23.241Z,103407.59
2023-01-22T15:49:52.073Z,103404.91
2023-01-22T15:52:19.042Z,103404.91
2023-01-22T15:54:47.868Z,103406.69
2023-01-22T15:57:16.893Z,103404.91
2023-01-22T15:59:43.562Z,103410.28
2023-01-22T16:02:13.410Z,103409.41
2023-01-22T16:04:40.053Z,103387.19
2023-01-22T16:07:06.651Z,103412.16
2023-01-22T16:09:34.145Z,103396.97
2023-01-22T16:12:00.813Z,103414.84
2023-01-22T16:14:29.811Z,103400.69
2023-01-22T16:16:56.537Z,103385.59
2023-01-22T16:19:25.487Z,103405.06
2023-01-22T16:21:57.933Z,103407.81
2023-01-22T16:24:24.557Z,103419.34
2023-01-22T16:26:53.637Z,103413.97
2023-01-22T16:29:20.249Z,103406.06
2023-01-22T16:31:46.893Z,103414.16
2023-01-22T16:34:19.711Z,103428.38
2023-01-22T16:36:49.072Z,103429.22
2023-01-22T16:39:20.745Z,103432.81
2023-01-22T16:41:51.625Z,103426.56
2023-01-22T16:44:27.319Z,103428.34
2023-01-22T16:46:57.174Z,103424.75
2023-01-22T16:49:26.542Z,103422.06
2023-01-22T16:51:59.373Z,103421.09
2023-01-22T16:54:29.737Z,103426.50
2023-01-22T16:56:58.716Z,103439.06
2023-01-22T16:59:27.055Z,103407.03
2023-01-22T17:01:54.795Z,103413.22
2023-01-22T17:04:21.471Z,103423.03
2023-01-22T17:06:56.617Z,103434.59
2023-01-22T17:09:25.997Z,103438.28
2023-01-22T17:11:57.414Z,103409.78
2023-01-22T17:14:26.426Z,103418.59
2023-01-22T17:16:55.902Z,103352.19
2023-01-22T17:19:22.969Z,103432.00
2023-01-22T17:21:51.955Z,103293.66
2023-01-22T17:24:22.447Z,103362.78
2023-01-22T17:26:50.152Z,103436.47
2023-01-22T17:29:16.831Z,103445.38
2023-01-22T17:31:46.116Z,103448.03
2023-01-22T17:34:13.005Z,103440.84
2023-01-22T17:36:40.676Z,103425.91
2023-01-22T17:39:08.023Z,103454.25
2023-01-22T17:41:34.600Z,103451.56
2023-01-22T17:44:01.340Z,103425.91
2023-01-22T17:46:32.009Z,103457.00
2023-01-22T17:49:01.071Z,103429.31
2023-01-22T17:51:29.423Z,103449.88
2023-01-22T17:54:01.591Z,103351.28
2023-01-22T17:56:34.667Z,103450.69
2023-01-22T17:59:04.200Z,103450.66
2023-01-22T18:01:33.265Z,103455.13
2023-01-22T18:04:02.822Z,103459.53
2023-01-22T18:06:32.117Z,103459.59
2023-01-22T18:08:59.287Z,103438.31
2023-01-22T18:11:28.014Z,103471.16
2023-01-22T18:13:56.688Z,103471.16
2023-01-22T18:16:27.990Z,103477.44
2023-01-22T18:18:55.112Z,103464.91
2023-01-22T18:21:23.152Z,103458.69
2023-01-22T18:23:50.537Z,103439.22
2023-01-22T18:26:22.662Z,103467.56
2023-01-22T18:28:50.981Z,103435.72
2023-01-22T18:31:21.432Z,103469.34
2023-01-22T18:33:48.916Z,103476.50
2023-01-22T18:36:22.137Z,103460.53
2023-01-22T18:38:49.437Z,103435.59
2023-01-22T18:41:24.047Z,103464.91
2023-01-22T18:43:55.394Z,103445.38
2023-01-22T18:46:27.977Z,103468.44
2023-01-22T18:49:00.754Z,103467.50
2023-01-22T18:51:30.580Z,103464.88
2023-01-22T18:53:57.354Z,103462.19
2023-01-22T18:56:26.243Z,103469.28
2023-01-22T18:58:59.457Z,103472.84
2023-01-22T19:01:30.825Z,103447.03
2023-01-22T19:04:18.016Z,103470.16
2023-01-22T19:06:48.640Z,103470.16
2023-01-22T19:09:15.656Z,103445.31
2023-01-22T19:11:44.274Z,103476.47
2023-01-22T19:14:16.570Z,103477.38
2023-01-22T19:16:48.631Z,103495.28
2023-01-22T19:19:17.037Z,103474.72
2023-01-22T19:21:48.592Z,103376.31
2023-01-22T19:24:22.361Z,103455.25
2023-01-22T19:26:51.348Z,103481.81
2023-01-22T19:29:22.859Z,103487.19
2023-01-22T19:31:52.291Z,103483.66
2023-01-22T19:34:23.674Z,103474.75
2023-01-22T19:36:56.450Z,103493.50
2023-01-22T19:39:25.916Z,103497.06
2023-01-22T19:41:54.173Z,103489.00
2023-01-22T19:44:23.541Z,103398.44
2023-01-22T19:46:50.166Z,103497.06
2023-01-22T19:49:16.902Z,103478.44
2023-01-22T19:51:45.938Z,103496.13
2023-01-22T19:54:15.475Z,103505.13
2023-01-22T19:56:46.070Z,103456.16
2023-01-22T19:59:15.216Z,103509.56
2023-01-22T20:01:45.500Z,103496.22
2023-01-22T20:04:26.647Z,103498.78
2023-01-22T20:06:58.887Z,103501.47
2023-01-22T20:09:25.822Z,103423.31
2023-01-22T20:11:53.995Z,103498.88
2023-01-22T20:14:25.333Z,103495.28
2023-01-22T20:16:54.303Z,103481.03
2023-01-22T20:19:20.885Z,103506.75
2023-01-22T20:21:50.296Z,103489.06
2023-01-22T20:24:17.081Z,103513.06
2023-01-22T20:26:43.725Z,103513.94
2023-01-22T20:29:12.883Z,103514.84
2023-01-22T20:31:42.264Z,103307.19
2023-01-22T20:34:11.419Z,103515.91
2023-01-22T20:36:38.045Z,103511.38
2023-01-22T20:39:06.817Z,103530.03
2023-01-22T20:41:35.765Z,103533.66
2023-01-22T20:44:02.397Z,103514.06
2023-01-22T20:46:29.138Z,103530.06
2023-01-22T20:48:58.331Z,103526.50
2023-01-22T20:51:28.958Z,103526.44
2023-01-22T20:53:57.027Z,103522.00
2023-01-22T20:56:31.310Z,103524.66
2023-01-22T20:59:00.285Z,103528.31
2023-01-22T21:01:27.810Z,103518.44
2023-01-22T21:03:56.321Z,103523.81
2023-01-22T21:06:24.669Z,103520.25
2023-01-22T21:08:53.078Z,103529.19
2023-01-22T21:11:21.130Z,103457.28
2023-01-22T21:13:50.038Z,103524.78
2023-01-22T21:16:23.168Z,103522.94
2023-01-22T21:18:50.042Z,103506.06
2023-01-22T21:21:21.369Z,103512.19
2023-01-22T21:23:49.452Z,103505.97
2023-01-22T21:26:19.298Z,103516.75
2023-01-22T21:28:48.013Z,103519.34
2023-01-22T21:31:17.702Z,103518.50
2023-01-22T21:33:45.098Z,103463.44
2023-01-22T21:36:13.255Z,103517.56
2023-01-22T21:38:39.952Z,103518.47
2023-01-22T21:41:15.718Z,103522.91
2023-01-22T21:44:04.213Z,103488.19
2023-01-22T21:46:37.874Z,103520.28
2023-01-22T21:49:20.260Z,103516.72
2023-01-22T21:51:52.619Z,103536.41
2023-01-22T21:54:28.075Z,103530.19
2023-01-22T21:56:56.707Z,103537.34
2023-01-22T21:59:25.626Z,103540.06
2023-01-22T22:01:54.611Z,103520.47
2023-01-22T22:04:23.097Z,103540.94
2023-01-22T22:06:49.747Z,103550.81
2023-01-22T22:09:20.072Z,103544.50
2023-01-22T22:11:46.889Z,103548.06
2023-01-22T22:14:20.306Z,103552.50
2023-01-22T22:16:47.618Z,103488.59
2023-01-22T22:19:15.632Z,103553.34
2023-01-22T22:21:45.711Z,103573.09
2023-01-22T22:24:15.004Z,103557.88
2023-01-22T22:26:41.603Z,103565.84
2023-01-22T22:29:09.451Z,103573.94
2023-01-22T22:31:36.994Z,103566.72
2023-01-22T22:34:05.876Z,103558.63
2023-01-22T22:36:32.949Z,103560.41
2023-01-22T22:39:00.955Z,103509.78
2023-01-22T22:41:30.974Z,103557.72
2023-01-22T22:43:58.050Z,103550.63
2023-01-22T22:46:29.823Z,103563.13
2023-01-22T22:48:58.536Z,103560.50
2023-01-22T22:51:39.483Z,103569.44
2023-01-22T22:54:11.393Z,103572.13
2023-01-22T22:56:38.014Z,103580.19
2023-01-22T22:59:05.291Z,103521.50
2023-01-22T23:01:33.245Z,103552.56
2023-01-22T23:04:01.146Z,103566.75
2023-01-22T23:06:30.248Z,103565.00
2023-01-22T23:08:58.263Z,103557.94
2023-01-22T23:11:30.573Z,103557.03
2023-01-22T23:14:03.160Z,103563.09
2023-01-22T23:16:36.157Z,103568.47
2023-01-22T23:19:07.997Z,103576.56
2023-01-22T23:21:36.513Z,103558.84
2023-01-22T23:24:03.595Z,103542.81
2023-01-22T23:26:30.990Z,103580.13
2023-01-22T23:29:02.523Z,103580.09
2023-01-22T23:31:34.119Z,103422.84
2023-01-22T23:34:04.801Z,103571.13
2023-01-22T23:36:35.103Z,103566.72
2023-01-22T23:39:03.132Z,103572.03
2023-01-22T23:41:30.293Z,103578.38
2023-01-22T23:43:59.320Z,103564.13
2023-01-22T23:46:28.386Z,103568.53
2023-01-22T23:48:57.215Z,103562.38
2023-01-22T23:51:24.102Z,103557.00
2023-01-22T23:53:54.439Z,103566.75
2023-01-22T23:56:26.856Z,103569.44
2023-01-22T23:58:57.178Z,103560.50
